createdAt,value
2022-09-12T00:02:40.478Z,100022.72
2022-09-12T00:05:31.049Z,100019.38
2022-09-12T00:08:19.445Z,100019.59
2022-09-12T00:11:09.817Z,100017.06
2022-09-12T00:13:58.790Z,100014.56
2022-09-12T00:16:47.245Z,100018.94
2022-09-12T00:19:35.679Z,100009.56
2022-09-12T00:22:25.390Z,100005.41
2022-09-12T00:25:13.786Z,99999.72
2022-09-12T00:28:02.538Z,99999.28
2022-09-12T00:30:51.317Z,99997.88
2022-09-12T00:33:39.956Z,100001.63
2022-09-12T00:36:29.014Z,100003.66
2022-09-12T00:39:19.740Z,100012.59
2022-09-12T00:42:08.310Z,100011.88
2022-09-12T00:44:56.705Z,100009.53
2022-09-12T00:47:45.027Z,100001.13
2022-09-12T00:50:33.501Z,100002.03
2022-09-12T00:53:21.851Z,100002.03
2022-09-12T00:56:11.530Z,99999.63
2022-09-12T00:59:02.682Z,100002.97
2022-09-12T01:01:51.579Z,100003.88
2022-09-12T01:04:40.312Z,100006.69
2022-09-12T01:07:28.824Z,100005.94
2022-09-12T01:10:17.222Z,100004.28
2022-09-12T01:13:09.516Z,100000.94
2022-09-12T01:15:57.889Z,99997.06
2022-09-12T01:18:59.170Z,99997.59
2022-09-12T01:21:51.943Z,99991.09
2022-09-12T01:24:52.925Z,99991.22
2022-09-12T01:28:10.251Z,99992.41
2022-09-12T01:31:01.260Z,99988.81
2022-09-12T01:33:58.694Z,99992.91
2022-09-12T01:36:55.259Z,99992.56
2022-09-12T01:39:49.447Z,99983.28
2022-09-12T01:42:44.291Z,99986.44
2022-09-12T01:45:35.033Z,99985.13
2022-09-12T01:48:26.170Z,99974.75
2022-09-12T01:51:17.933Z,99967.06
2022-09-12T01:54:08.109Z,99972.41
2022-09-12T01:56:58.077Z,99964.75
2022-09-12T01:59:48.753Z,99979.56
2022-09-12T02:02:38.806Z,99978.00
2022-09-12T02:05:32.005Z,99972.88
2022-09-12T02:08:24.287Z,99969.56
2022-09-12T02:11:12.898Z,99975.50
2022-09-12T02:14:04.381Z,99966.19
2022-09-12T02:16:54.471Z,99965.28
2022-09-12T02:19:44.527Z,99962.69
2022-09-12T02:22:34.274Z,99952.38
2022-09-12T02:25:22.637Z,99944.69
2022-09-12T02:28:13.453Z,99963.81
2022-09-12T02:31:10.085Z,99962.13
2022-09-12T02:34:10.269Z,99962.31
2022-09-12T02:37:06.342Z,99960.38
2022-09-12T02:39:57.116Z,99961.22
2022-09-12T02:42:45.524Z,99954.03
2022-09-12T02:45:34.692Z,99949.59
2022-09-12T02:48:25.541Z,99956.38
2022-09-12T02:51:13.867Z,99948.78
2022-09-12T02:54:03.015Z,99954.91
2022-09-12T02:56:56.172Z,99948.03
2022-09-12T02:59:44.517Z,99951.38
2022-09-12T03:02:45.297Z,99950.53
2022-09-12T03:05:34.255Z,99941.91
2022-09-12T03:08:44.295Z,99934.41
2022-09-12T03:11:46.994Z,99940.44
2022-09-12T03:14:52.915Z,99940.50
2022-09-12T03:17:55.613Z,99941.53
2022-09-12T03:20:47.301Z,99951.25
2022-09-12T03:23:38.835Z,99948.78
2022-09-12T03:26:29.470Z,99945.44
2022-09-12T03:29:17.853Z,99939.56
2022-09-12T03:32:08.194Z,99940.59
2022-09-12T03:34:56.625Z,99939.84
2022-09-12T03:37:45.139Z,99938.34
2022-09-12T03:40:33.508Z,99946.13
2022-09-12T03:43:21.889Z,99942.72
2022-09-12T03:46:10.341Z,99951.25
2022-09-12T03:49:00.065Z,99939.75
2022-09-12T03:51:48.444Z,99931.50
2022-09-12T03:54:36.816Z,99932.91
2022-09-12T03:57:25.197Z,99927.13
2022-09-12T04:00:19.031Z,99934.56
2022-09-12T04:03:08.155Z,99939.38
2022-09-12T04:05:58.820Z,99934.53
2022-09-12T04:08:50.470Z,99929.44
2022-09-12T04:11:38.783Z,99935.47
2022-09-12T04:14:27.138Z,99935.28
2022-09-12T04:17:15.511Z,99929.00
2022-09-12T04:20:04.414Z,99937.31
2022-09-12T04:22:54.214Z,99938.91
2022-09-12T04:25:42.619Z,99930.94
2022-09-12T04:28:32.446Z,99936.22
2022-09-12T04:31:22.622Z,99944.94
2022-09-12T04:34:11.233Z,99938.06
2022-09-12T04:36:59.632Z,99937.78
2022-09-12T04:39:49.719Z,99944.00
2022-09-12T04:42:38.171Z,99947.91
2022-09-12T04:45:26.678Z,99940.53
2022-09-12T04:48:15.195Z,99946.81
2022-09-12T04:51:10.807Z,99937.53
2022-09-12T04:54:00.552Z,99937.72
2022-09-12T04:56:51.030Z,99941.41
2022-09-12T04:59:39.839Z,99939.75
2022-09-12T05:02:29.069Z,99934.56
2022-09-12T05:05:17.951Z,99940.78
2022-09-12T05:08:06.566Z,99936.56
2022-09-12T05:10:55.165Z,99939.44
2022-09-12T05:13:45.005Z,99934.34
2022-09-12T05:16:33.400Z,99941.38
2022-09-12T05:19:21.898Z,99944.13
2022-09-12T05:22:10.288Z,99942.47
2022-09-12T05:24:58.863Z,99940.81
2022-09-12T05:27:50.447Z,99940.13
2022-09-12T05:30:40.404Z,99939.44
2022-09-12T05:33:28.892Z,99942.97
2022-09-12T05:36:18.452Z,99941.22
2022-09-12T05:39:07.048Z,99946.31
2022-09-12T05:41:55.796Z,99935.78
2022-09-12T05:44:44.148Z,99940.63
2022-09-12T05:47:33.824Z,99939.28
2022-09-12T05:50:22.316Z,99939.75
2022-09-12T05:53:10.743Z,99935.13
2022-09-12T05:56:07.737Z,99929.31
2022-09-12T05:58:57.790Z,99942.25
2022-09-12T06:01:46.409Z,99932.84
2022-09-12T06:04:36.104Z,99924.81
2022-09-12T06:07:24.655Z,99919.06
2022-09-12T06:10:13.472Z,99919.94
2022-09-12T06:13:03.902Z,99911.44
2022-09-12T06:15:52.313Z,99916.25
2022-09-12T06:18:41.464Z,99918.41
2022-09-12T06:21:32.007Z,99913.03
2022-09-12T06:24:20.830Z,99904.69
2022-09-12T06:27:09.160Z,99897.19
2022-09-12T06:29:57.690Z,99896.69
2022-09-12T06:32:46.016Z,99895.84
2022-09-12T06:35:38.247Z,99890.25
2022-09-12T06:38:27.988Z,99894.09
2022-09-12T06:41:16.540Z,99883.09
2022-09-12T06:44:05.053Z,99878.97
2022-09-12T06:46:54.082Z,99875.72
2022-09-12T06:49:42.482Z,99876.59
2022-09-12T06:52:30.840Z,99884.38
2022-09-12T06:55:23.569Z,99883.31
2022-09-12T06:58:15.660Z,99881.88
2022-09-12T07:01:05.002Z,99889.03
2022-09-12T07:03:55.014Z,99901.38
2022-09-12T07:06:44.612Z,99897.00
2022-09-12T07:09:33.035Z,99894.84
2022-09-12T07:12:22.725Z,99902.66
2022-09-12T07:15:12.170Z,99903.22
2022-09-12T07:18:00.597Z,99896.50
2022-09-12T07:20:48.992Z,99899.59
2022-09-12T07:23:37.724Z,99896.94
2022-09-12T07:26:26.873Z,99909.47
2022-09-12T07:32:26.009Z,99903.56
2022-09-12T07:35:14.556Z,99897.19
2022-09-12T07:38:03.216Z,99905.47
2022-09-12T07:40:51.571Z,99907.53
2022-09-12T07:43:39.949Z,99905.47
2022-09-12T07:46:30.484Z,99906.31
2022-09-12T07:49:18.907Z,99900.88
2022-09-12T07:52:07.317Z,99903.22
2022-09-12T07:54:55.674Z,99902.41
2022-09-12T07:57:44.062Z,99913.69
2022-09-12T08:00:35.857Z,99914.50
2022-09-12T08:03:25.714Z,99910.47
2022-09-12T08:06:15.354Z,99900.28
2022-09-12T08:09:04.146Z,99907.47
2022-09-12T08:11:52.950Z,99907.47
2022-09-12T08:14:41.475Z,99907.94
2022-09-12T08:17:29.853Z,99911.06
2022-09-12T08:20:19.564Z,99912.28
2022-09-12T08:23:08.182Z,99919.78
2022-09-12T08:26:02.143Z,99914.47
2022-09-12T08:28:53.176Z,99910.78
2022-09-12T08:31:42.488Z,99904.88
2022-09-12T08:34:30.886Z,99902.63
2022-09-12T08:37:20.752Z,99908.59
2022-09-12T08:40:15.301Z,99906.84
2022-09-12T08:43:08.088Z,99899.06
2022-09-12T08:46:01.201Z,99902.28
2022-09-12T08:48:49.724Z,99892.00
2022-09-12T08:51:38.200Z,99897.16
2022-09-12T08:54:30.084Z,99894.31
2022-09-12T08:57:19.038Z,99903.13
2022-09-12T09:00:14.014Z,99906.38
2022-09-12T09:03:39.094Z,99903.88
2022-09-12T09:06:54.002Z,99902.75
2022-09-12T09:09:53.751Z,99908.84
2022-09-12T09:12:47.996Z,99901.94
2022-09-12T09:15:42.664Z,99900.84
2022-09-12T09:18:32.772Z,99896.91
2022-09-12T09:21:24.773Z,99884.81
2022-09-12T09:24:15.476Z,99889.84
2022-09-12T09:27:23.588Z,99893.16
2022-09-12T09:30:16.822Z,99894.84
2022-09-12T09:33:05.887Z,99895.22
2022-09-12T09:36:00.299Z,99898.84
2022-09-12T09:38:50.406Z,99902.22
2022-09-12T09:41:48.158Z,99894.22
2022-09-12T09:44:37.869Z,99898.00
2022-09-12T09:47:26.224Z,99899.31
2022-09-12T09:50:17.623Z,99894.50
2022-09-12T09:53:06.370Z,99889.91
2022-09-12T09:55:55.162Z,99888.75
2022-09-12T09:58:43.589Z,99874.88
2022-09-12T10:01:33.442Z,99871.03
2022-09-12T10:04:22.818Z,99873.22
2022-09-12T10:07:19.794Z,99878.00
2022-09-12T10:10:15.895Z,99883.47
2022-09-12T10:13:09.997Z,99884.13
2022-09-12T10:16:00.285Z,99879.81
2022-09-12T10:18:50.994Z,99881.47
2022-09-12T10:21:42.464Z,99864.94
2022-09-12T10:24:35.248Z,99861.31
2022-09-12T10:27:25.099Z,99864.06
2022-09-12T10:30:18.931Z,99857.53
2022-09-12T10:33:09.789Z,99851.56
2022-09-12T10:35:59.479Z,99851.66
2022-09-12T10:38:50.994Z,99860.63
2022-09-12T10:41:40.081Z,99859.28
2022-09-12T10:44:30.633Z,99848.66
2022-09-12T10:47:31.521Z,99858.41
2022-09-12T10:50:26.543Z,99850.56
2022-09-12T10:53:20.559Z,99847.84
2022-09-12T10:56:11.013Z,99847.47
2022-09-12T10:59:08.261Z,99837.28
2022-09-12T11:02:00.681Z,99828.84
2022-09-12T11:04:56.446Z,99833.47
2022-09-12T11:07:47.064Z,99828.50
2022-09-12T11:10:44.453Z,99828.03
2022-09-12T11:13:51.677Z,99815.47
2022-09-12T11:16:43.196Z,99815.41
2022-09-12T11:19:52.233Z,99809.53
2022-09-12T11:23:01.360Z,99814.94
2022-09-12T11:25:53.347Z,99805.50
2022-09-12T11:28:48.748Z,99802.53
2022-09-12T11:31:57.708Z,99803.63
2022-09-12T11:34:55.789Z,99808.50
2022-09-12T11:38:05.152Z,99812.78
2022-09-12T11:40:56.090Z,99803.50
2022-09-12T11:43:47.714Z,99801.28
2022-09-12T11:46:37.262Z,99802.00
2022-09-12T11:49:33.600Z,99801.59
2022-09-12T11:52:24.646Z,99797.81
2022-09-12T11:55:18.110Z,99807.16
2022-09-12T11:58:08.897Z,99795.88
2022-09-12T12:00:59.133Z,99780.75
2022-09-12T12:03:48.469Z,99784.44
2022-09-12T12:06:46.408Z,99771.91
2022-09-12T12:09:47.128Z,99774.09
2022-09-12T12:12:35.467Z,99769.88
2022-09-12T12:15:25.280Z,99779.84
2022-09-12T12:18:26.872Z,99771.19
2022-09-12T12:21:37.159Z,99769.03
2022-09-12T12:24:26.105Z,99764.34
2022-09-12T12:27:25.686Z,99756.38
2022-09-12T12:31:03.241Z,99756.88
2022-09-12T12:34:14.254Z,99746.94
2022-09-12T12:37:48.693Z,99744.06
2022-09-12T12:40:37.081Z,99738.59
2022-09-12T12:43:32.454Z,99736.41
2022-09-12T12:46:22.474Z,99742.22
2022-09-12T12:49:11.835Z,99732.63
2022-09-12T12:52:02.150Z,99727.97
2022-09-12T12:54:56.464Z,99722.22
2022-09-12T12:57:49.821Z,99712.94
2022-09-12T13:00:39.964Z,99717.09
2022-09-12T13:03:31.315Z,99708.78
2022-09-12T13:06:32.399Z,99718.75
2022-09-12T13:09:23.115Z,99712.66
2022-09-12T13:12:13.364Z,99712.13
2022-09-12T13:15:02.091Z,99707.28
2022-09-12T13:17:50.457Z,99702.44
2022-09-12T13:20:48.475Z,99697.03
2022-09-12T13:23:36.824Z,99699.97
2022-09-12T13:26:26.132Z,99692.16
2022-09-12T13:29:17.247Z,99684.44
2022-09-12T13:32:05.981Z,99683.81
2022-09-12T13:35:08.885Z,99689.84
2022-09-12T13:37:59.635Z,99684.47
2022-09-12T13:40:59.093Z,99678.72
2022-09-12T13:43:48.224Z,99682.34
2022-09-12T13:46:36.620Z,99676.88
2022-09-12T13:49:31.157Z,99666.09
2022-09-12T13:52:21.868Z,99662.94
2022-09-12T13:55:24.610Z,99661.47
2022-09-12T13:58:18.652Z,99660.19
2022-09-12T14:01:09.230Z,99656.38
2022-09-12T14:04:18.209Z,99648.16
2022-09-12T14:07:13.042Z,99659.69
2022-09-12T14:10:01.578Z,99659.03
2022-09-12T14:12:51.858Z,99641.53
2022-09-12T14:15:40.256Z,99641.84
2022-09-12T14:18:31.139Z,99641.28
2022-09-12T14:21:31.424Z,99641.53
2022-09-12T14:24:23.901Z,99644.84
2022-09-12T14:27:12.572Z,99643.53
2022-09-12T14:30:07.398Z,99636.41
2022-09-12T14:33:19.430Z,99637.25
2022-09-12T14:36:25.009Z,99639.44
2022-09-12T14:39:21.802Z,99638.56
2022-09-12T14:42:15.378Z,99635.03
2022-09-12T14:45:14.467Z,99635.34
2022-09-12T14:48:03.212Z,99631.53
2022-09-12T14:50:51.850Z,99625.91
2022-09-12T14:53:40.456Z,99612.72
2022-09-12T14:56:42.654Z,99623.06
2022-09-12T14:59:32.383Z,99605.16
2022-09-12T15:02:26.525Z,99603.13
2022-09-12T15:05:24.474Z,99611.38
2022-09-12T15:08:15.669Z,99594.47
2022-09-12T15:11:04.036Z,99593.06
2022-09-12T15:13:52.433Z,99589.88
2022-09-12T15:16:40.749Z,99586.78
2022-09-12T15:19:30.945Z,99592.50
2022-09-12T15:22:19.355Z,99586.09
2022-09-12T15:25:08.912Z,99582.63
2022-09-12T15:27:57.336Z,99578.69
2022-09-12T15:30:46.135Z,99583.13
2022-09-12T15:33:34.527Z,99581.53
2022-09-12T15:36:24.775Z,99572.94
2022-09-12T15:39:13.305Z,99568.13
2022-09-12T15:42:01.664Z,99570.22
2022-09-12T15:44:50.034Z,99567.09
2022-09-12T15:47:38.402Z,99571.41
2022-09-12T15:50:28.081Z,99569.31
2022-09-12T15:53:18.050Z,99565.22
2022-09-12T15:56:08.215Z,99557.28
2022-09-12T15:58:59.657Z,99564.28
2022-09-12T16:01:49.083Z,99564.84
2022-09-12T16:04:37.644Z,99552.94
2022-09-12T16:07:25.981Z,99554.53
2022-09-12T16:10:19.982Z,99551.69
2022-09-12T16:13:08.296Z,99555.59
2022-09-12T16:15:57.939Z,99548.28
2022-09-12T16:18:46.398Z,99552.63
2022-09-12T16:21:34.783Z,99550.97
2022-09-12T16:24:23.266Z,99547.81
2022-09-12T16:27:12.952Z,99544.31
2022-09-12T16:30:01.456Z,99542.03
2022-09-12T16:32:49.997Z,99540.22
2022-09-12T16:35:38.509Z,99541.94
2022-09-12T16:38:26.857Z,99539.56
2022-09-12T16:41:15.525Z,99543.72
2022-09-12T16:44:05.331Z,99546.25
2022-09-12T16:46:53.794Z,99545.97
2022-09-12T16:49:42.130Z,99539.25
2022-09-12T16:52:31.174Z,99556.88
2022-09-12T16:55:19.525Z,99553.03
2022-09-12T16:58:07.879Z,99556.84
2022-09-12T17:01:03.423Z,99552.47
2022-09-12T17:03:54.076Z,99560.03
2022-09-12T17:06:42.507Z,99551.94
2022-09-12T17:09:30.938Z,99558.59
2022-09-12T17:12:19.316Z,99557.84
2022-09-12T17:15:08.441Z,99552.31
2022-09-12T17:17:58.123Z,99557.78
2022-09-12T17:20:46.511Z,99548.94
2022-09-12T17:23:34.903Z,99547.09
2022-09-12T17:26:23.325Z,99558.72
2022-09-12T17:29:13.742Z,99552.56
2022-09-12T17:32:02.615Z,99541.78
2022-09-12T17:34:52.288Z,99553.38
2022-09-12T17:37:41.497Z,99557.94
2022-09-12T17:40:55.613Z,99555.91
2022-09-12T17:43:39.976Z,99554.75
2022-09-12T17:46:32.941Z,99560.22
2022-09-12T17:49:22.042Z,99552.50
2022-09-12T17:52:12.287Z,99572.69
2022-09-12T17:55:00.617Z,99563.84
2022-09-12T17:57:49.012Z,99565.38
2022-09-12T18:00:54.877Z,99573.66
2022-09-12T18:03:43.270Z,99580.53
2022-09-12T18:06:32.805Z,99577.41
2022-09-12T18:09:25.008Z,99571.75
2022-09-12T18:12:13.695Z,99574.31
2022-09-12T18:15:02.055Z,99578.72
2022-09-12T18:17:50.417Z,99580.84
2022-09-12T18:20:38.814Z,99582.03
2022-09-12T18:23:27.264Z,99578.53
2022-09-12T18:26:16.928Z,99583.53
2022-09-12T18:29:05.358Z,99578.97
2022-09-12T18:31:53.737Z,99574.38
2022-09-12T18:34:42.111Z,99573.38
2022-09-12T18:37:30.490Z,99580.19
2022-09-12T18:40:18.973Z,99580.97
2022-09-12T18:43:08.728Z,99579.66
2022-09-12T18:45:57.100Z,99571.94
2022-09-12T18:48:45.807Z,99581.47
2022-09-12T18:51:35.954Z,99580.75
2022-09-12T18:54:24.346Z,99578.41
2022-09-12T18:57:12.719Z,99590.88
2022-09-12T19:00:04.102Z,99584.84
2022-09-12T19:02:52.497Z,99575.31
2022-09-12T19:05:40.887Z,99573.66
2022-09-12T19:08:29.212Z,99564.41
2022-09-12T19:11:17.743Z,99574.28
2022-09-12T19:14:06.599Z,99570.28
2022-09-12T19:16:56.518Z,99569.00
2022-09-12T19:19:45.893Z,99576.56
2022-09-12T19:22:34.282Z,99575.13
2022-09-12T19:25:22.728Z,99569.38
2022-09-12T19:28:11.521Z,99570.19
2022-09-12T19:30:59.866Z,99573.81
2022-09-12T19:33:49.855Z,99555.84
2022-09-12T19:36:45.469Z,99567.44
2022-09-12T19:39:34.572Z,99562.75
2022-09-12T19:42:22.943Z,99563.22
2022-09-12T19:45:12.120Z,99560.06
2022-09-12T19:48:00.905Z,99557.22
2022-09-12T19:50:50.712Z,99556.13
2022-09-12T19:53:39.525Z,99548.84
2022-09-12T19:56:27.849Z,99550.50
2022-09-12T19:59:16.226Z,99550.75
2022-09-12T20:02:04.903Z,99542.72
2022-09-12T20:04:53.307Z,99546.00
2022-09-12T20:07:43.224Z,99545.41
2022-09-12T20:10:31.563Z,99527.38
2022-09-12T20:13:19.941Z,99533.56
2022-09-12T20:16:09.224Z,99530.00
2022-09-12T20:18:58.960Z,99523.78
2022-09-12T20:21:47.319Z,99526.13
2022-09-12T20:24:37.361Z,99525.91
2022-09-12T20:27:25.893Z,99525.91
2022-09-12T20:30:15.340Z,99518.75
2022-09-12T20:33:03.729Z,99521.38
2022-09-12T20:35:52.069Z,99518.75
2022-09-12T20:38:40.797Z,99520.66
2022-09-12T20:41:34.225Z,99519.16
2022-09-12T20:44:22.575Z,99521.19
2022-09-12T20:47:10.904Z,99512.91
2022-09-12T20:49:59.274Z,99513.13
2022-09-12T20:52:47.630Z,99499.63
2022-09-12T20:55:35.976Z,99501.09
2022-09-12T20:58:25.679Z,99505.63
2022-09-12T21:01:15.905Z,99501.50
2022-09-12T21:04:04.515Z,99486.44
2022-09-12T21:06:52.908Z,99483.13
2022-09-12T21:09:41.239Z,99484.22
2022-09-12T21:12:29.613Z,99476.53
2022-09-12T21:15:19.328Z,99472.50
2022-09-12T21:18:07.946Z,99464.19
2022-09-12T21:20:56.538Z,99463.63
2022-09-12T21:23:44.949Z,99463.63
2022-09-12T21:26:33.413Z,99464.72
2022-09-12T21:29:21.862Z,99475.19
2022-09-12T21:32:14.165Z,99460.56
2022-09-12T21:35:03.022Z,99461.63
2022-09-12T21:37:52.777Z,99470.41
2022-09-12T21:40:41.116Z,99468.50
2022-09-12T21:43:29.591Z,99470.16
2022-09-12T21:46:18.559Z,99473.28
2022-09-12T21:49:08.619Z,99476.63
2022-09-12T21:51:56.998Z,99473.25
2022-09-12T21:54:45.371Z,99474.00
2022-09-12T21:57:34.031Z,99472.25
2022-09-12T22:00:22.744Z,99472.19
2022-09-12T22:03:11.391Z,99478.00
2022-09-12T22:06:01.921Z,99476.84
2022-09-12T22:08:50.330Z,99483.03
2022-09-12T22:11:38.715Z,99466.66
2022-09-12T22:14:27.066Z,99464.97
2022-09-12T22:17:15.834Z,99472.63
2022-09-12T22:20:04.770Z,99472.72
2022-09-12T22:23:12.173Z,99471.13
2022-09-12T22:26:01.418Z,99466.94
2022-09-12T22:28:50.314Z,99468.94
2022-09-12T22:31:38.897Z,99459.91
2022-09-12T22:34:27.450Z,99455.84
2022-09-12T22:37:15.805Z,99458.28
2022-09-12T22:40:07.096Z,99456.38
2022-09-12T22:42:55.676Z,99445.22
2022-09-12T22:45:44.064Z,99456.91
2022-09-12T22:48:32.472Z,99461.44
2022-09-12T22:51:20.832Z,99452.19
2022-09-12T22:54:10.799Z,99447.34
2022-09-12T22:57:00.471Z,99453.19
2022-09-12T22:59:48.879Z,99450.63
2022-09-12T23:02:37.495Z,99447.25
2022-09-12T23:05:25.912Z,99451.53
2022-09-12T23:08:14.422Z,99437.47
2022-09-12T23:11:03.403Z,99440.78
2022-09-12T23:13:53.399Z,99435.47
2022-09-12T23:16:41.826Z,99427.41
2022-09-12T23:19:30.190Z,99436.69
2022-09-12T23:22:18.577Z,99435.50
2022-09-12T23:25:08.496Z,99440.50
2022-09-12T23:27:56.818Z,99429.16
2022-09-12T23:30:46.549Z,99428.78
2022-09-12T23:33:34.959Z,99436.84
2022-09-12T23:36:23.620Z,99438.28
2022-09-12T23:39:12.185Z,99434.75
2022-09-12T23:42:00.498Z,99429.50
2022-09-12T23:44:48.846Z,99440.84
2022-09-12T23:47:38.625Z,99448.66
2022-09-12T23:50:27.052Z,99448.38
2022-09-12T23:53:16.683Z,99442.94
2022-09-12T23:56:05.729Z,99452.38
2022-09-12T23:58:54.150Z,99454.59
